S5KEA LJPZ-LJPO
Flight info
| Callsign | S5KEA |
|---|---|
| Flight time | N/A |
| Altitude | 3500 |
| Route | DCT PE2/N0110A055 DCT KOZINA DCT DIVACA DCT 453910N0140515E 453502N0141258E 453611N0141415E/N0110A045 453835N0141141E DCT POS1 DCT |
| Aircraft | C172/L-SBDGR/C |
Departure
| Time | 2026-05-06 10:34 |
|---|---|
| Airport | Portorož Airport (LJPZ) |
Arrival
| Time | N/A |
|---|---|
| Airport | Postojna Airfield (LJPO) |
| Time | Latitude | Longitude | Altitude | Speed | Heading |
|---|---|---|---|---|---|
| 2026-05-06 10:20 | 45.47543 | 13.61488 | 3 ft | 0 kts | 243° |
| 2026-05-06 10:30 | 45.47542 | 13.61486 | 3 ft | 2 kts | 245° |
| 2026-05-06 10:31 | 45.47548 | 13.61459 | 3 ft | 7 kts | 331° |
| 2026-05-06 10:31 | 45.47617 | 13.61406 | 2 ft | 14 kts | 331° |
| 2026-05-06 10:31 | 45.47695 | 13.61332 | 1 ft | 11 kts | 291° |
| 2026-05-06 10:31 | 45.47707 | 13.61282 | 0 ft | 0 kts | 286° |
| 2026-05-06 10:32 | 45.47713 | 13.61245 | 0 ft | 8 kts | 266° |
| 2026-05-06 10:32 | 45.47685 | 13.61223 | 0 ft | 2 kts | 142° |
| 2026-05-06 10:32 | 45.47680 | 13.61227 | 0 ft | 0 kts | 150° |
| 2026-05-06 10:33 | 45.47679 | 13.61228 | 0 ft | 1 kts | 147° |
| 2026-05-06 10:33 | 45.47569 | 13.61313 | 0 ft | 35 kts | 149° |
| 2026-05-06 10:33 | 45.47222 | 13.61586 | 37 ft | 69 kts | 150° |
| 2026-05-06 10:34 | 45.46794 | 13.61912 | 218 ft | 70 kts | 155° |
| 2026-05-06 10:34 | 45.46366 | 13.62194 | 427 ft | 66 kts | 159° |
| 2026-05-06 10:34 | 45.45941 | 13.62448 | 626 ft | 61 kts | 149° |
| 2026-05-06 10:34 | 45.45707 | 13.62924 | 795 ft | 63 kts | 104° |
| 2026-05-06 10:35 | 45.45818 | 13.63580 | 923 ft | 71 kts | 63° |
| 2026-05-06 10:35 | 45.46176 | 13.64115 | 1027 ft | 86 kts | 18° |
| 2026-05-06 10:35 | 45.46778 | 13.63886 | 1079 ft | 105 kts | 328° |
| 2026-05-06 10:35 | 45.47415 | 13.63290 | 1038 ft | 104 kts | 335° |
| 2026-05-06 10:36 | 45.48016 | 13.62826 | 1041 ft | 99 kts | 335° |
| 2026-05-06 10:36 | 45.48649 | 13.62367 | 1140 ft | 101 kts | 337° |
| 2026-05-06 10:36 | 45.49307 | 13.62110 | 1284 ft | 98 kts | 9° |
| 2026-05-06 10:36 | 45.49898 | 13.62512 | 1399 ft | 97 kts | 45° |
| 2026-05-06 10:37 | 45.50305 | 13.63291 | 1566 ft | 98 kts | 63° |
| 2026-05-06 10:37 | 45.50613 | 13.64184 | 1710 ft | 102 kts | 70° |
| 2026-05-06 10:37 | 45.50873 | 13.65138 | 1845 ft | 105 kts | 70° |
| 2026-05-06 10:37 | 45.51245 | 13.66042 | 1997 ft | 106 kts | 63° |
| 2026-05-06 10:38 | 45.51655 | 13.66940 | 2124 ft | 108 kts | 57° |
| 2026-05-06 10:38 | 45.52100 | 13.67793 | 2277 ft | 108 kts | 58° |
| 2026-05-06 10:38 | 45.52579 | 13.68623 | 2417 ft | 109 kts | 53° |
| 2026-05-06 10:38 | 45.53054 | 13.69465 | 2561 ft | 107 kts | 58° |
| 2026-05-06 10:39 | 45.53468 | 13.70350 | 2710 ft | 106 kts | 63° |
| 2026-05-06 10:39 | 45.53826 | 13.71248 | 2855 ft | 104 kts | 69° |
| 2026-05-06 10:39 | 45.54180 | 13.72169 | 3005 ft | 105 kts | 60° |
| 2026-05-06 10:39 | 45.54621 | 13.72990 | 3150 ft | 105 kts | 53° |
| 2026-05-06 10:40 | 45.55079 | 13.73812 | 3297 ft | 106 kts | 55° |
| 2026-05-06 10:40 | 45.55527 | 13.74645 | 3417 ft | 109 kts | 56° |
| 2026-05-06 10:40 | 45.55941 | 13.75573 | 3490 ft | 114 kts | 67° |
| 2026-05-06 10:40 | 45.56278 | 13.76645 | 3506 ft | 121 kts | 71° |
| 2026-05-06 10:41 | 45.56554 | 13.77819 | 3506 ft | 126 kts | 73° |
| 2026-05-06 10:41 | 45.56872 | 13.78999 | 3505 ft | 128 kts | 72° |
| 2026-05-06 10:41 | 45.57196 | 13.80198 | 3501 ft | 130 kts | 72° |
| 2026-05-06 10:41 | 45.57569 | 13.81377 | 3498 ft | 131 kts | 69° |
| 2026-05-06 10:42 | 45.57885 | 13.82592 | 3492 ft | 131 kts | 74° |
| 2026-05-06 10:42 | 45.58190 | 13.83816 | 3501 ft | 131 kts | 72° |
| 2026-05-06 10:42 | 45.58528 | 13.85036 | 3505 ft | 131 kts | 71° |
| 2026-05-06 10:42 | 45.58870 | 13.86244 | 3508 ft | 132 kts | 71° |
| 2026-05-06 10:43 | 45.59172 | 13.87475 | 3503 ft | 131 kts | 78° |
| 2026-05-06 10:43 | 45.59468 | 13.88705 | 3500 ft | 128 kts | 71° |
| 2026-05-06 10:43 | 45.59801 | 13.89835 | 3503 ft | 121 kts | 71° |
| 2026-05-06 10:44 | 45.59657 | 13.91890 | 3492 ft | 103 kts | 145° |
| 2026-05-06 10:44 | 45.59010 | 13.92170 | 3489 ft | 97 kts | 189° |
| 2026-05-06 10:44 | 45.58445 | 13.91695 | 3493 ft | 96 kts | 226° |
| 2026-05-06 10:44 | 45.58062 | 13.90906 | 3496 ft | 97 kts | 239° |
| 2026-05-06 10:45 | 45.57760 | 13.90034 | 3491 ft | 97 kts | 241° |
| 2026-05-06 10:45 | 45.57457 | 13.89127 | 3406 ft | 102 kts | 242° |
| 2026-05-06 10:45 | 45.57172 | 13.88209 | 3390 ft | 101 kts | 251° |
| 2026-05-06 10:45 | 45.57310 | 13.87224 | 3396 ft | 107 kts | 297° |
| 2026-05-06 10:46 | 45.57906 | 13.86654 | 3380 ft | 100 kts | 345° |
| 2026-05-06 10:46 | 45.58577 | 13.86806 | 3390 ft | 103 kts | 30° |
| 2026-05-06 10:46 | 45.59088 | 13.87598 | 3400 ft | 114 kts | 64° |
| 2026-05-06 10:46 | 45.59444 | 13.88664 | 3392 ft | 120 kts | 72° |
| 2026-05-06 10:47 | 45.59757 | 13.89757 | 3398 ft | 120 kts | 72° |
| 2026-05-06 10:47 | 45.60064 | 13.90894 | 3390 ft | 125 kts | 73° |
| 2026-05-06 10:47 | 45.60363 | 13.92034 | 3472 ft | 120 kts | 73° |
| 2026-05-06 10:47 | 45.60686 | 13.93160 | 3492 ft | 124 kts | 69° |
| 2026-05-06 10:48 | 45.61054 | 13.94294 | 3491 ft | 126 kts | 68° |
| 2026-05-06 10:48 | 45.61414 | 13.95420 | 3481 ft | 121 kts | 69° |
| 2026-05-06 10:48 | 45.61756 | 13.96487 | 3486 ft | 117 kts | 69° |
| 2026-05-06 10:48 | 45.62091 | 13.97528 | 3485 ft | 111 kts | 69° |
| 2026-05-06 10:49 | 45.62396 | 13.98474 | 3478 ft | 98 kts | 69° |
| 2026-05-06 10:49 | 45.62798 | 13.99315 | 3487 ft | 113 kts | 38° |
| 2026-05-06 10:49 | 45.63522 | 13.99652 | 3457 ft | 101 kts | 352° |
| 2026-05-06 10:49 | 45.64105 | 13.99285 | 3465 ft | 85 kts | 307° |
| 2026-05-06 10:50 | 45.64305 | 13.98555 | 3478 ft | 79 kts | 260° |
| 2026-05-06 10:50 | 45.64039 | 13.97829 | 3494 ft | 91 kts | 221° |
| 2026-05-06 10:50 | 45.63531 | 13.97216 | 3491 ft | 100 kts | 217° |
| 2026-05-06 10:50 | 45.63003 | 13.96613 | 3495 ft | 96 kts | 216° |
| 2026-05-06 10:51 | 45.62463 | 13.96003 | 3493 ft | 99 kts | 216° |
| 2026-05-06 10:51 | 45.61925 | 13.95378 | 3499 ft | 101 kts | 219° |
| 2026-05-06 10:51 | 45.61438 | 13.94613 | 3497 ft | 108 kts | 229° |
| 2026-05-06 10:51 | 45.61036 | 13.93743 | 3486 ft | 99 kts | 236° |
| 2026-05-06 10:52 | 45.60738 | 13.92847 | 3491 ft | 103 kts | 247° |
| 2026-05-06 10:52 | 45.60490 | 13.91853 | 3500 ft | 109 kts | 247° |
| 2026-05-06 10:52 | 45.60223 | 13.90827 | 3488 ft | 110 kts | 245° |
| 2026-05-06 10:52 | 45.59945 | 13.89800 | 3502 ft | 111 kts | 245° |
| 2026-05-06 10:53 | 45.59676 | 13.88764 | 3498 ft | 111 kts | 246° |
| 2026-05-06 10:53 | 45.59431 | 13.87763 | 3458 ft | 103 kts | 246° |
| 2026-05-06 10:53 | 45.59184 | 13.86797 | 3309 ft | 104 kts | 246° |
| 2026-05-06 10:53 | 45.58930 | 13.85833 | 3145 ft | 103 kts | 245° |
| 2026-05-06 10:54 | 45.58674 | 13.84865 | 2979 ft | 104 kts | 245° |
| 2026-05-06 10:54 | 45.58411 | 13.83894 | 2800 ft | 105 kts | 247° |
| 2026-05-06 10:54 | 45.58170 | 13.82917 | 2621 ft | 105 kts | 249° |
| 2026-05-06 10:54 | 45.57938 | 13.81960 | 2534 ft | 100 kts | 248° |
| 2026-05-06 10:55 | 45.57713 | 13.81037 | 2509 ft | 95 kts | 246° |
| 2026-05-06 10:55 | 45.57499 | 13.80166 | 2512 ft | 90 kts | 246° |
| 2026-05-06 10:55 | 45.57272 | 13.79282 | 2521 ft | 98 kts | 245° |
| 2026-05-06 10:55 | 45.57025 | 13.78343 | 2525 ft | 104 kts | 245° |
| 2026-05-06 10:56 | 45.56752 | 13.77361 | 2521 ft | 108 kts | 245° |
| 2026-05-06 10:56 | 45.56475 | 13.76349 | 2521 ft | 110 kts | 247° |
| 2026-05-06 10:56 | 45.56204 | 13.75316 | 2519 ft | 107 kts | 243° |
| 2026-05-06 10:56 | 45.55882 | 13.74402 | 2413 ft | 101 kts | 237° |
| 2026-05-06 10:57 | 45.55529 | 13.73531 | 2258 ft | 101 kts | 234° |
| 2026-05-06 10:57 | 45.55170 | 13.72635 | 2117 ft | 106 kts | 235° |
| 2026-05-06 10:57 | 45.54794 | 13.71715 | 1966 ft | 109 kts | 236° |
| 2026-05-06 10:57 | 45.54424 | 13.70774 | 1809 ft | 109 kts | 240° |
| 2026-05-06 10:58 | 45.54062 | 13.69821 | 1650 ft | 107 kts | 237° |
| 2026-05-06 10:58 | 45.53683 | 13.68938 | 1522 ft | 99 kts | 236° |
| 2026-05-06 10:58 | 45.53322 | 13.68148 | 1492 ft | 90 kts | 231° |
| 2026-05-06 10:58 | 45.52969 | 13.67440 | 1519 ft | 86 kts | 230° |
| 2026-05-06 10:59 | 45.52621 | 13.66732 | 1505 ft | 88 kts | 230° |
| 2026-05-06 10:59 | 45.52280 | 13.66021 | 1509 ft | 86 kts | 230° |
| 2026-05-06 10:59 | 45.51914 | 13.65336 | 1494 ft | 86 kts | 226° |
| 2026-05-06 10:59 | 45.51540 | 13.64678 | 1508 ft | 85 kts | 221° |
| 2026-05-06 11:00 | 45.51117 | 13.64090 | 1505 ft | 85 kts | 218° |
| 2026-05-06 11:00 | 45.50674 | 13.63509 | 1515 ft | 88 kts | 219° |
| 2026-05-06 11:00 | 45.50323 | 13.62766 | 1513 ft | 92 kts | 232° |
| 2026-05-06 11:00 | 45.50010 | 13.61945 | 1523 ft | 95 kts | 235° |
| 2026-05-06 11:01 | 45.49693 | 13.61114 | 1518 ft | 95 kts | 234° |
| 2026-05-06 11:01 | 45.49298 | 13.60380 | 1427 ft | 95 kts | 207° |
| 2026-05-06 11:01 | 45.48705 | 13.60268 | 1252 ft | 85 kts | 152° |
| 2026-05-06 11:01 | 45.48236 | 13.60790 | 836 ft | 88 kts | 145° |
| 2026-05-06 11:02 | 45.47791 | 13.61137 | 913 ft | 60 kts | 150° |
| 2026-05-06 11:02 | 45.47404 | 13.61455 | 992 ft | 75 kts | 150° |
| 2026-05-06 11:02 | 45.46904 | 13.61855 | 937 ft | 83 kts | 152° |
| 2026-05-06 11:02 | 45.46388 | 13.62230 | 945 ft | 82 kts | 154° |
| 2026-05-06 11:03 | 45.45872 | 13.62594 | 957 ft | 83 kts | 152° |
| 2026-05-06 11:03 | 45.45447 | 13.63112 | 1052 ft | 83 kts | 115° |
| 2026-05-06 11:03 | 45.45446 | 13.63947 | 1156 ft | 85 kts | 78° |
| 2026-05-06 11:03 | 45.45702 | 13.64718 | 1124 ft | 84 kts | 57° |
| 2026-05-06 11:04 | 45.46226 | 13.65101 | 1119 ft | 83 kts | 10° |
| 2026-05-06 11:04 | 45.46782 | 13.64948 | 1153 ft | 87 kts | 338° |
| 2026-05-06 11:04 | 45.47360 | 13.64504 | 1167 ft | 101 kts | 329° |
| 2026-05-06 11:04 | 45.47989 | 13.63971 | 1127 ft | 104 kts | 328° |
| 2026-05-06 11:05 | 45.48611 | 13.63462 | 1153 ft | 99 kts | 328° |
| 2026-05-06 11:05 | 45.49191 | 13.63010 | 1155 ft | 96 kts | 328° |
| 2026-05-06 11:05 | 45.49738 | 13.62540 | 1118 ft | 82 kts | 313° |
| 2026-05-06 11:05 | 45.49958 | 13.61876 | 1142 ft | 72 kts | 265° |
| 2026-05-06 11:06 | 45.49875 | 13.61144 | 1140 ft | 74 kts | 246° |
| 2026-05-06 11:06 | 45.49632 | 13.60594 | 1078 ft | 60 kts | 206° |
| 2026-05-06 11:06 | 45.49217 | 13.60399 | 855 ft | 71 kts | 181° |
| 2026-05-06 11:06 | 45.48723 | 13.60475 | 631 ft | 74 kts | 166° |
| 2026-05-06 11:07 | 45.48248 | 13.60773 | 336 ft | 76 kts | 150° |
| 2026-05-06 11:07 | 45.47803 | 13.61123 | 55 ft | 70 kts | 150° |
| 2026-05-06 11:07 | 45.47461 | 13.61399 | 1 ft | 31 kts | 147° |
| 2026-05-06 11:07 | 45.47377 | 13.61483 | 3 ft | 9 kts | 93° |
| 2026-05-06 11:08 | 45.47396 | 13.61544 | 4 ft | 7 kts | 61° |
| 2026-05-06 11:08 | 45.47438 | 13.61549 | 4 ft | 8 kts | 355° |
| 2026-05-06 11:08 | 45.47479 | 13.61534 | 4 ft | 3 kts | 28° |
| 2026-05-06 11:08 | 45.47501 | 13.61560 | 4 ft | 1 kts | 336° |
| 2026-05-06 11:09 | 45.47503 | 13.61558 | 4 ft | 0 kts | 333° |